Millers, Maryland
Current Conditions -  °F | °C
As of 11:25 AM on Thursday 29 Jan 2015 (Local Time) from KDMW Reporting Station
Clear Clear  
Wind Chill: 23°   Ceiling: Unl
Heat Index: 30°   Visibility: 10mi
Dew Point:   Wind: 7mph
Humidity: 37%   Direction: 150°SSE
Pressure: 30.2"   Gusts: NA
Location:  39.6887°N, 76.8586°W
Report Text: KDMW 291625Z AUTO 15006KT 10SM CLR M01/M14 A3020 RMK AO2
Loading
Personal Weather Stations






























Interactive Weather Map New forecast layout! Learn more

10-Day Weather Forecast

Advertisements
Track Severe Weather on mobile